createdAt,value
2018-11-26T00:01:45.865Z,94269.30
2018-11-26T00:04:14.286Z,94264.39
2018-11-26T00:06:42.744Z,94260.16
2018-11-26T00:09:11.988Z,94262.71
2018-11-26T00:11:40.471Z,94267.45
2018-11-26T00:14:08.836Z,94263.34
2018-11-26T00:16:37.211Z,94262.75
2018-11-26T00:19:05.861Z,94262.33
2018-11-26T00:21:34.297Z,94262.33
2018-11-26T00:24:02.667Z,94258.42
2018-11-26T00:26:31.050Z,94260.23
2018-11-26T00:28:59.425Z,94261.20
2018-11-26T00:31:27.867Z,94260.50
2018-11-26T00:33:56.323Z,94263.09
2018-11-26T00:36:24.731Z,94263.11
2018-11-26T00:38:53.135Z,94255.59
2018-11-26T00:41:21.510Z,94247.03
2018-11-26T00:43:49.964Z,94251.02
2018-11-26T00:46:18.380Z,94240.79
2018-11-26T00:48:46.768Z,94240.08
2018-11-26T00:51:15.211Z,94243.20
2018-11-26T00:53:43.613Z,94239.31
2018-11-26T00:56:11.991Z,94238.30
2018-11-26T00:58:40.394Z,94232.58
2018-11-26T01:01:08.841Z,94229.73
2018-11-26T01:03:37.210Z,94231.45
2018-11-26T01:06:05.848Z,94236.43
2018-11-26T01:08:34.272Z,94222.77
2018-11-26T01:11:02.712Z,94233.22
2018-11-26T01:13:31.169Z,94235.31
2018-11-26T01:15:59.559Z,94239.97
2018-11-26T01:18:27.987Z,94233.02
2018-11-26T01:20:56.397Z,94232.50
2018-11-26T01:23:24.819Z,94236.15
2018-11-26T01:25:53.169Z,94231.66
2018-11-26T01:28:21.553Z,94245.15
2018-11-26T01:30:49.980Z,94240.30
2018-11-26T01:33:18.413Z,94244.22
2018-11-26T01:35:46.825Z,94241.86
2018-11-26T01:38:15.235Z,94237.98
2018-11-26T01:40:48.609Z,94239.62
2018-11-26T01:43:17.136Z,94234.94
2018-11-26T01:45:45.549Z,94236.41
2018-11-26T01:48:13.952Z,94234.06
2018-11-26T01:50:42.411Z,94239.54
2018-11-26T01:53:10.788Z,94236.13
2018-11-26T01:55:39.197Z,94232.09
2018-11-26T01:58:07.583Z,94233.44
2018-11-26T02:00:36.072Z,94233.52
2018-11-26T02:03:04.469Z,94240.52
2018-11-26T02:05:32.929Z,94241.41
2018-11-26T02:08:01.355Z,94241.61
2018-11-26T02:10:29.751Z,94234.39
2018-11-26T02:12:58.180Z,94232.39
2018-11-26T02:15:40.479Z,94234.67
2018-11-26T02:18:09.199Z,94236.54
2018-11-26T02:20:37.555Z,94232.80
2018-11-26T02:23:05.960Z,94227.06
2018-11-26T02:25:34.329Z,94224.23
2018-11-26T02:28:02.617Z,94219.20
2018-11-26T02:30:31.000Z,94214.71
2018-11-26T02:32:59.374Z,94222.09
2018-11-26T02:35:27.732Z,94213.48
2018-11-26T02:37:56.037Z,94216.45
2018-11-26T02:40:28.870Z,94213.56
2018-11-26T02:42:57.196Z,94215.31
2018-11-26T02:45:25.562Z,94217.11
2018-11-26T02:47:53.832Z,94209.50
2018-11-26T02:50:22.149Z,94211.98
2018-11-26T02:52:50.458Z,94211.52
2018-11-26T02:55:18.814Z,94207.77
2018-11-26T02:57:47.135Z,94200.51
2018-11-26T03:00:15.468Z,94202.61
2018-11-26T03:02:43.785Z,94205.84
2018-11-26T03:05:12.902Z,94210.70
2018-11-26T03:07:41.320Z,94203.45
2018-11-26T03:10:10.300Z,94202.69
2018-11-26T03:12:39.116Z,94205.38
2018-11-26T03:15:11.593Z,94203.82
2018-11-26T03:17:40.193Z,94207.76
2018-11-26T03:20:10.159Z,94207.13
2018-11-26T03:22:38.668Z,94203.84
2018-11-26T03:25:08.537Z,94202.61
2018-11-26T03:27:36.917Z,94195.80
2018-11-26T03:30:08.756Z,94200.52
2018-11-26T03:32:37.180Z,94199.17
2018-11-26T03:35:07.141Z,94202.22
2018-11-26T03:37:35.556Z,94196.88
2018-11-26T03:40:05.720Z,94204.59
2018-11-26T03:42:34.141Z,94203.67
2018-11-26T03:45:02.528Z,94209.18
2018-11-26T03:47:30.990Z,94209.04
2018-11-26T03:49:59.387Z,94208.27
2018-11-26T03:52:27.791Z,94219.20
2018-11-26T03:54:56.193Z,94215.69
2018-11-26T03:57:24.835Z,94213.89
2018-11-26T03:59:53.237Z,94214.09
2018-11-26T04:02:21.687Z,94219.32
2018-11-26T04:04:50.091Z,94217.68
2018-11-26T04:07:18.465Z,94212.32
2018-11-26T04:09:46.880Z,94220.66
2018-11-26T04:12:15.371Z,94216.88
2018-11-26T04:14:43.782Z,94220.19
2018-11-26T04:17:12.608Z,94216.09
2018-11-26T04:19:40.976Z,94220.78
2018-11-26T04:22:09.418Z,94217.84
2018-11-26T04:24:37.794Z,94220.52
2018-11-26T04:27:06.476Z,94215.53
2018-11-26T04:29:34.915Z,94222.17
2018-11-26T04:32:03.240Z,94219.51
2018-11-26T04:42:52.619Z,94220.49
2018-11-26T04:45:21.078Z,94218.70
2018-11-26T04:47:49.400Z,94218.02
2018-11-26T04:50:17.770Z,94212.12
2018-11-26T04:52:46.133Z,94216.45
2018-11-26T04:55:14.452Z,94216.81
2018-11-26T04:57:43.039Z,94214.68
2018-11-26T05:00:12.464Z,94225.13
2018-11-26T05:02:40.843Z,94217.05
2018-11-26T05:05:10.216Z,94220.94
2018-11-26T05:07:38.603Z,94215.48
2018-11-26T05:10:08.535Z,94210.02
2018-11-26T05:12:36.845Z,94218.75
2018-11-26T05:15:05.916Z,94214.20
2018-11-26T05:17:34.210Z,94217.86
2018-11-26T05:20:02.524Z,94216.68
2018-11-26T05:22:30.864Z,94216.41
2018-11-26T05:24:59.193Z,94218.54
2018-11-26T05:27:27.516Z,94215.13
2018-11-26T05:29:55.812Z,94212.45
2018-11-26T05:32:24.143Z,94219.82
2018-11-26T05:34:52.459Z,94212.91
2018-11-26T05:37:20.784Z,94220.09
2018-11-26T05:39:49.104Z,94217.20
2018-11-26T05:42:17.460Z,94215.37
2018-11-26T05:44:45.780Z,94219.56
2018-11-26T05:47:14.209Z,94211.67
2018-11-26T05:49:42.693Z,94209.55
2018-11-26T05:52:11.033Z,94211.16
2018-11-26T05:54:39.366Z,94211.32
2018-11-26T05:57:07.688Z,94214.72
2018-11-26T05:59:36.053Z,94217.16
2018-11-26T06:02:04.531Z,94219.93
2018-11-26T06:04:33.004Z,94216.59
2018-11-26T06:07:01.465Z,94213.83
2018-11-26T06:09:29.979Z,94210.55
2018-11-26T06:11:58.381Z,94216.31
2018-11-26T06:14:26.903Z,94222.48
2018-11-26T06:16:55.218Z,94221.95
2018-11-26T06:19:23.564Z,94224.27
2018-11-26T06:21:52.000Z,94221.63
2018-11-26T06:24:20.403Z,94218.45
2018-11-26T06:26:50.446Z,94217.98
2018-11-26T06:29:18.934Z,94223.37
2018-11-26T06:31:47.303Z,94225.43
2018-11-26T06:34:15.783Z,94224.33
2018-11-26T06:36:44.395Z,94222.22
2018-11-26T06:39:12.760Z,94225.00
2018-11-26T06:41:41.200Z,94235.48
2018-11-26T06:44:09.659Z,94240.09
2018-11-26T06:46:38.122Z,94238.82
2018-11-26T06:49:06.904Z,94239.25
2018-11-26T06:51:35.393Z,94234.70
2018-11-26T06:54:03.855Z,94243.66
2018-11-26T06:56:32.279Z,94247.52
2018-11-26T06:59:00.747Z,94250.71
2018-11-26T07:01:29.191Z,94249.45
2018-11-26T07:03:57.758Z,94250.16
2018-11-26T07:06:26.192Z,94241.31
2018-11-26T07:08:54.666Z,94246.75
2018-11-26T07:11:23.117Z,94252.11
2018-11-26T07:13:51.605Z,94250.12
2018-11-26T07:16:20.020Z,94257.09
2018-11-26T07:18:48.467Z,94259.89
2018-11-26T07:21:16.933Z,94264.63
2018-11-26T07:23:45.377Z,94260.13
2018-11-26T07:26:13.895Z,94265.98
2018-11-26T07:28:42.338Z,94268.86
2018-11-26T07:31:10.817Z,94274.12
2018-11-26T07:33:39.224Z,94271.36
2018-11-26T07:36:11.461Z,94278.95
2018-11-26T07:38:36.183Z,94274.02
2018-11-26T07:41:05.716Z,94280.95
2018-11-26T07:43:35.318Z,94285.76
2018-11-26T07:46:04.946Z,94277.03
2018-11-26T07:48:34.649Z,94279.02
2018-11-26T07:51:04.007Z,94279.91
2018-11-26T07:53:33.457Z,94278.66
2018-11-26T07:56:03.004Z,94282.92
2018-11-26T07:58:32.380Z,94284.52
2018-11-26T08:01:01.430Z,94285.25
2018-11-26T08:03:30.795Z,94286.77
2018-11-26T08:06:00.177Z,94288.54
2018-11-26T08:08:29.611Z,94288.89
2018-11-26T08:10:58.874Z,94284.86
2018-11-26T08:13:28.372Z,94286.75
2018-11-26T08:15:57.770Z,94293.66
2018-11-26T08:18:26.267Z,94289.69
2018-11-26T08:20:54.688Z,94297.35
2018-11-26T08:23:23.131Z,94299.72
2018-11-26T08:25:52.770Z,94295.52
2018-11-26T08:28:21.790Z,94297.66
2018-11-26T08:30:49.808Z,94298.33
2018-11-26T08:33:18.271Z,94297.17
2018-11-26T08:35:46.706Z,94294.73
2018-11-26T08:38:20.339Z,94299.41
2018-11-26T08:40:53.660Z,94297.73
2018-11-26T08:43:27.338Z,94304.74
2018-11-26T08:45:57.672Z,94305.80
2018-11-26T08:48:26.283Z,94307.72
2018-11-26T08:50:56.251Z,94305.38
2018-11-26T08:53:24.579Z,94317.11
2018-11-26T08:55:53.147Z,94311.89
2018-11-26T08:58:21.465Z,94318.18
2018-11-26T09:00:54.976Z,94320.39
2018-11-26T09:03:28.334Z,94319.36
2018-11-26T09:06:02.448Z,94318.84
2018-11-26T09:08:32.892Z,94321.88
2018-11-26T09:11:02.820Z,94312.31
2018-11-26T09:13:31.329Z,94317.25
2018-11-26T09:15:59.749Z,94315.87
2018-11-26T09:18:28.222Z,94325.80
2018-11-26T09:20:56.634Z,94328.34
2018-11-26T09:23:25.097Z,94332.38
2018-11-26T09:25:53.520Z,94337.41
2018-11-26T09:28:21.972Z,94328.84
2018-11-26T09:30:50.532Z,94338.30
2018-11-26T09:33:20.857Z,94334.62
2018-11-26T09:35:49.265Z,94339.08
2018-11-26T09:38:17.637Z,94343.39
2018-11-26T09:40:45.969Z,94348.30
2018-11-26T09:43:14.327Z,94336.16
2018-11-26T09:45:42.744Z,94340.55
2018-11-26T09:48:11.200Z,94348.55
2018-11-26T09:50:39.688Z,94355.88
2018-11-26T09:53:08.126Z,94346.39
2018-11-26T09:55:38.185Z,94346.73
2018-11-26T09:58:06.552Z,94353.64
2018-11-26T10:00:34.896Z,94353.31
2018-11-26T10:03:03.235Z,94357.13
2018-11-26T10:05:31.577Z,94354.19
2018-11-26T10:07:59.867Z,94358.70
2018-11-26T10:10:28.257Z,94360.66
2018-11-26T10:12:56.731Z,94358.28
2018-11-26T10:15:26.244Z,94351.55
2018-11-26T10:17:54.643Z,94348.38
2018-11-26T10:20:23.097Z,94357.14
2018-11-26T10:22:52.419Z,94356.64
2018-11-26T10:25:21.631Z,94349.66
2018-11-26T10:27:50.076Z,94346.90
2018-11-26T10:30:19.858Z,94353.59
2018-11-26T10:32:49.089Z,94351.25
2018-11-26T10:35:18.479Z,94342.65
2018-11-26T10:37:46.949Z,94344.95
2018-11-26T10:40:17.267Z,94344.20
2018-11-26T10:42:45.739Z,94347.56
2018-11-26T10:45:20.289Z,94346.14
2018-11-26T10:47:48.855Z,94346.85
2018-11-26T10:50:18.506Z,94346.89
2018-11-26T10:52:48.215Z,94348.20
2018-11-26T10:55:21.636Z,94351.41
2018-11-26T10:57:50.159Z,94345.52
2018-11-26T11:02:27.150Z,94354.52
2018-11-26T11:04:55.629Z,94354.58
2018-11-26T11:07:24.710Z,94351.17
2018-11-26T11:09:53.163Z,94350.80
2018-11-26T11:12:21.656Z,94351.99
2018-11-26T11:14:50.159Z,94352.59
2018-11-26T11:17:18.659Z,94354.19
2018-11-26T11:19:47.601Z,94359.80
2018-11-26T11:22:16.103Z,94356.70
2018-11-26T11:24:44.554Z,94352.89
2018-11-26T11:27:13.737Z,94355.55
2018-11-26T11:29:46.045Z,94358.54
2018-11-26T11:32:14.522Z,94349.30
2018-11-26T11:34:43.045Z,94349.91
2018-11-26T11:37:17.587Z,94352.05
2018-11-26T11:39:46.156Z,94351.22
2018-11-26T11:42:19.568Z,94354.98
2018-11-26T11:44:48.092Z,94354.42
2018-11-26T11:49:55.184Z,94350.66
2018-11-26T11:52:24.537Z,94356.74
2018-11-26T11:54:59.562Z,94350.48
2018-11-26T11:57:28.064Z,94351.53
2018-11-26T11:59:56.510Z,94351.28
2018-11-26T12:02:29.168Z,94350.64
2018-11-26T12:04:57.634Z,94349.59
2018-11-26T12:07:26.081Z,94349.42
2018-11-26T12:09:54.570Z,94350.66
2018-11-26T12:12:23.092Z,94352.77
2018-11-26T12:14:51.654Z,94344.64
2018-11-26T12:17:20.132Z,94349.29
2018-11-26T12:19:48.560Z,94350.25
2018-11-26T12:22:26.050Z,94348.16
2018-11-26T12:24:54.506Z,94348.88
2018-11-26T12:27:30.372Z,94350.22
2018-11-26T12:30:03.200Z,94346.58
2018-11-26T12:32:33.304Z,94351.92
2018-11-26T12:35:13.179Z,94353.78
2018-11-26T12:37:41.926Z,94354.78
2018-11-26T12:40:12.460Z,94345.67
2018-11-26T12:42:41.996Z,94345.18
2018-11-26T12:45:20.372Z,94353.31
2018-11-26T12:47:50.403Z,94350.22
2018-11-26T12:50:22.143Z,94355.69
2018-11-26T12:52:51.267Z,94351.67
2018-11-26T12:55:21.176Z,94356.00
2018-11-26T12:57:51.852Z,94350.56
2018-11-26T13:00:22.886Z,94350.51
2018-11-26T13:02:58.695Z,94353.58
2018-11-26T13:05:29.847Z,94353.86
2018-11-26T13:08:03.836Z,94358.09
2018-11-26T13:10:37.120Z,94358.40
2018-11-26T13:13:10.573Z,94357.48
2018-11-26T13:15:42.607Z,94361.59
2018-11-26T13:18:11.879Z,94359.73
2018-11-26T13:20:50.409Z,94361.80
2018-11-26T13:23:19.436Z,94360.80
2018-11-26T13:25:48.135Z,94363.61
2018-11-26T13:28:17.500Z,94364.92
2018-11-26T13:30:48.544Z,94366.14
2018-11-26T13:33:18.194Z,94362.94
2018-11-26T13:35:48.128Z,94361.59
2018-11-26T13:38:17.204Z,94360.34
2018-11-26T13:40:45.549Z,94360.11
2018-11-26T13:43:16.027Z,94361.44
2018-11-26T13:45:46.876Z,94364.02
2018-11-26T13:48:16.820Z,94371.11
2018-11-26T13:50:50.126Z,94372.88
2018-11-26T13:53:21.634Z,94372.87
2018-11-26T13:55:51.568Z,94373.44
2018-11-26T13:58:21.137Z,94386.20
2018-11-26T14:00:50.108Z,94382.69
2018-11-26T14:03:19.415Z,94386.25
2018-11-26T14:05:55.204Z,94384.91
2018-11-26T14:08:24.485Z,94379.75
2018-11-26T14:10:55.605Z,94384.66
2018-11-26T14:13:26.857Z,94385.94
2018-11-26T14:15:58.978Z,94385.63
2018-11-26T14:18:27.116Z,94387.81
2018-11-26T14:20:57.028Z,94392.05
2018-11-26T14:23:26.377Z,94393.66
2018-11-26T14:25:55.409Z,94389.09
2018-11-26T14:28:29.735Z,94399.36
2018-11-26T14:30:59.432Z,94396.42
2018-11-26T14:33:28.372Z,94397.72
2018-11-26T14:35:58.960Z,94397.44
2018-11-26T14:38:27.536Z,94398.22
2018-11-26T14:40:56.046Z,94398.75
2018-11-26T14:43:24.388Z,94399.37
2018-11-26T14:45:52.804Z,94397.51
2018-11-26T14:48:21.236Z,94400.92
2018-11-26T14:50:49.667Z,94396.51
2018-11-26T14:53:18.186Z,94401.58
2018-11-26T14:55:57.882Z,94408.78
2018-11-26T14:58:26.497Z,94415.66
2018-11-26T15:00:55.012Z,94417.58
2018-11-26T15:03:23.474Z,94418.71
2018-11-26T15:05:51.901Z,94419.60
2018-11-26T15:08:20.349Z,94421.19
2018-11-26T15:10:51.055Z,94424.08
2018-11-26T15:13:30.758Z,94418.05
2018-11-26T15:16:04.680Z,94420.21
2018-11-26T15:18:36.897Z,94417.28
2018-11-26T15:21:08.843Z,94422.95
2018-11-26T15:23:38.015Z,94418.83
2018-11-26T15:26:07.829Z,94415.11
2018-11-26T15:28:39.363Z,94414.66
2018-11-26T15:31:22.641Z,94426.39
2018-11-26T15:34:01.721Z,94430.41
2018-11-26T15:36:38.445Z,94441.53
2018-11-26T15:39:16.367Z,94431.28
2018-11-26T15:41:54.836Z,94429.45
2018-11-26T15:44:28.405Z,94426.06
2018-11-26T15:47:19.387Z,94432.61
2018-11-26T15:49:49.507Z,94435.42
2018-11-26T15:52:26.572Z,94435.67
2018-11-26T15:55:02.782Z,94432.66
2018-11-26T15:57:46.105Z,94435.74
2018-11-26T16:00:52.228Z,94439.27
2018-11-26T16:06:17.536Z,94445.84
2018-11-26T16:09:01.396Z,94443.70
2018-11-26T16:11:45.430Z,94442.38
2018-11-26T16:20:05.753Z,94453.36
2018-11-26T16:22:54.194Z,94455.44
2018-11-26T16:25:27.771Z,94457.63
2018-11-26T16:28:02.938Z,94458.88
2018-11-26T16:30:44.711Z,94453.47
2018-11-26T16:33:14.997Z,94455.91
2018-11-26T16:36:01.890Z,94464.84
2018-11-26T16:38:30.268Z,94472.08
2018-11-26T16:41:11.125Z,94466.02
2018-11-26T16:43:39.754Z,94472.12
2018-11-26T16:46:09.385Z,94473.03
2018-11-26T16:48:37.853Z,94482.33
2018-11-26T16:51:06.514Z,94482.28
2018-11-26T16:53:35.221Z,94480.48
2018-11-26T16:56:03.773Z,94483.28
2018-11-26T16:58:32.221Z,94485.05
2018-11-26T17:01:00.658Z,94485.48
2018-11-26T17:03:29.266Z,94493.07
2018-11-26T17:05:57.782Z,94488.59
2018-11-26T17:08:26.972Z,94494.37
2018-11-26T17:10:55.532Z,94499.03
2018-11-26T17:13:23.997Z,94500.77
2018-11-26T17:15:52.486Z,94510.31
2018-11-26T17:18:20.972Z,94506.58
2018-11-26T17:20:49.482Z,94509.57
2018-11-26T17:23:17.919Z,94521.22
2018-11-26T17:25:46.348Z,94519.71
2018-11-26T17:28:14.753Z,94519.91
2018-11-26T17:30:43.292Z,94523.69
2018-11-26T17:33:12.488Z,94522.22
2018-11-26T17:35:41.026Z,94519.95
2018-11-26T17:38:09.510Z,94523.77
2018-11-26T17:40:38.797Z,94524.58
2018-11-26T17:43:07.904Z,94528.44
2018-11-26T17:45:36.445Z,94531.03
2018-11-26T17:48:05.232Z,94535.66
2018-11-26T17:50:35.352Z,94538.35
2018-11-26T17:53:03.910Z,94538.67
2018-11-26T17:55:32.338Z,94550.06
2018-11-26T17:58:00.776Z,94544.67
2018-11-26T18:00:33.393Z,94547.38
2018-11-26T18:03:01.846Z,94539.31
2018-11-26T18:05:31.103Z,94549.69
2018-11-26T18:08:06.108Z,94548.08
2018-11-26T18:10:34.622Z,94551.98
2018-11-26T18:13:03.174Z,94552.69
2018-11-26T18:15:31.553Z,94559.76
2018-11-26T18:18:00.019Z,94560.62
2018-11-26T18:20:28.457Z,94559.84
2018-11-26T18:22:56.922Z,94565.56
2018-11-26T18:25:25.542Z,94574.20
2018-11-26T18:28:02.657Z,94577.03
2018-11-26T18:30:34.581Z,94574.08
2018-11-26T18:33:03.170Z,94579.69
2018-11-26T18:35:31.578Z,94574.77
2018-11-26T18:38:00.013Z,94574.77
2018-11-26T18:40:28.440Z,94574.39
2018-11-26T18:42:56.829Z,94577.16
2018-11-26T18:45:25.280Z,94573.88
2018-11-26T18:47:53.698Z,94578.51
2018-11-26T18:50:22.341Z,94581.98
2018-11-26T18:52:51.200Z,94589.45
2018-11-26T18:55:19.945Z,94593.36
2018-11-26T18:57:48.361Z,94598.00
2018-11-26T19:00:19.039Z,94599.11
2018-11-26T19:02:47.455Z,94597.40
2018-11-26T19:05:16.558Z,94602.03
2018-11-26T19:07:45.056Z,94605.20
2018-11-26T19:10:14.783Z,94602.84
2018-11-26T19:12:43.955Z,94608.34
2018-11-26T19:15:25.757Z,94598.70
2018-11-26T19:17:56.289Z,94602.36
2018-11-26T19:20:24.733Z,94602.69
2018-11-26T19:22:53.208Z,94611.30
2018-11-26T19:25:21.643Z,94607.10
2018-11-26T19:27:50.056Z,94608.28
2018-11-26T19:30:22.861Z,94609.84
2018-11-26T19:32:47.114Z,94613.07
2018-11-26T19:35:15.999Z,94616.38
2018-11-26T19:37:44.425Z,94622.81
2018-11-26T19:40:15.736Z,94625.40
2018-11-26T19:42:46.130Z,94628.70
2018-11-26T19:45:18.684Z,94634.95
2018-11-26T19:47:47.197Z,94628.84
2018-11-26T19:50:18.679Z,94632.23
2018-11-26T19:52:49.092Z,94640.91
2018-11-26T19:55:21.701Z,94641.22
2018-11-26T19:57:50.377Z,94643.22
2018-11-26T20:00:21.793Z,94645.70
2018-11-26T20:02:52.860Z,94652.93
2018-11-26T20:05:24.284Z,94654.22
2018-11-26T20:07:52.739Z,94654.75
2018-11-26T20:10:21.170Z,94657.81
2018-11-26T20:12:49.618Z,94661.57
2018-11-26T20:15:18.323Z,94663.10
2018-11-26T20:17:46.798Z,94654.48
2018-11-26T20:20:15.353Z,94659.36
2018-11-26T20:22:43.823Z,94654.38
2018-11-26T20:25:13.377Z,94654.88
2018-11-26T20:27:42.176Z,94660.01
2018-11-26T20:30:13.942Z,94663.49
2018-11-26T20:32:45.942Z,94668.25
2018-11-26T20:35:14.376Z,94670.78
2018-11-26T20:37:42.861Z,94671.80
2018-11-26T20:40:14.362Z,94677.16
2018-11-26T20:42:47.541Z,94681.63
2018-11-26T20:45:16.357Z,94683.83
2018-11-26T20:47:45.600Z,94688.62
2018-11-26T20:50:18.540Z,94685.18
2018-11-26T20:52:46.949Z,94689.47
2018-11-26T20:55:17.615Z,94688.76
2018-11-26T20:57:46.477Z,94692.86
2018-11-26T21:00:27.891Z,94688.70
2018-11-26T21:03:03.405Z,94691.62
2018-11-26T21:05:31.828Z,94688.13
2018-11-26T21:08:00.242Z,94689.73
2018-11-26T21:10:28.656Z,94692.02
2018-11-26T21:12:57.129Z,94694.30
2018-11-26T21:15:25.570Z,94694.46
2018-11-26T21:17:57.713Z,94698.08
2018-11-26T21:20:32.732Z,94707.10
2018-11-26T21:23:01.250Z,94706.86
2018-11-26T21:25:29.724Z,94718.94
2018-11-26T21:27:58.247Z,94720.63
2018-11-26T21:30:26.761Z,94719.25
2018-11-26T21:32:56.354Z,94724.80
2018-11-26T21:35:24.796Z,94723.95
2018-11-26T21:37:53.994Z,94723.98
2018-11-26T21:40:23.831Z,94720.58
2018-11-26T21:42:52.350Z,94715.80
2018-11-26T21:45:25.246Z,94722.83
2018-11-26T21:47:53.771Z,94720.00
2018-11-26T21:50:22.270Z,94715.53
2018-11-26T21:52:50.652Z,94712.53
2018-11-26T21:55:19.136Z,94719.15
2018-11-26T21:57:47.630Z,94720.25
2018-11-26T22:00:23.674Z,94715.26
2018-11-26T22:02:52.373Z,94712.34
2018-11-26T22:05:20.968Z,94713.72
2018-11-26T22:07:49.402Z,94720.34
2018-11-26T22:10:22.978Z,94720.84
2018-11-26T22:12:53.513Z,94719.63
2018-11-26T22:15:21.983Z,94734.70
2018-11-26T22:17:50.446Z,94718.27
2018-11-26T22:20:21.126Z,94720.63
2018-11-26T22:22:49.520Z,94722.62
2018-11-26T22:25:18.858Z,94730.89
2018-11-26T22:27:47.454Z,94726.08
2018-11-26T22:30:18.101Z,94720.55
2018-11-26T22:32:46.549Z,94719.48
2018-11-26T22:35:14.961Z,94717.90
2018-11-26T22:37:43.380Z,94716.48
2018-11-26T22:40:19.662Z,94720.67
2018-11-26T22:42:48.078Z,94719.93
2018-11-26T22:45:22.361Z,94728.80
2018-11-26T22:48:07.312Z,94734.91
2018-11-26T22:50:36.562Z,94725.52
2018-11-26T22:53:06.625Z,94740.30
2018-11-26T22:55:36.140Z,94739.88
2018-11-26T22:58:06.857Z,94744.19
2018-11-26T23:00:42.897Z,94753.64
2018-11-26T23:03:12.688Z,94754.97
2018-11-26T23:05:41.004Z,94747.15
2018-11-26T23:08:09.322Z,94758.28
2018-11-26T23:10:37.671Z,94755.41
2018-11-26T23:13:06.364Z,94759.87
2018-11-26T23:15:34.725Z,94761.74
2018-11-26T23:18:03.073Z,94758.82
2018-11-26T23:20:31.387Z,94768.06
2018-11-26T23:22:59.708Z,94768.23
2018-11-26T23:25:28.064Z,94760.22
2018-11-26T23:27:56.411Z,94761.02
2018-11-26T23:30:25.771Z,94758.73
2018-11-26T23:32:55.312Z,94756.89
2018-11-26T23:35:23.601Z,94753.92
2018-11-26T23:37:51.981Z,94760.79
2018-11-26T23:40:20.275Z,94760.09
2018-11-26T23:42:48.588Z,94758.95
2018-11-26T23:45:18.864Z,94759.75
2018-11-26T23:47:47.242Z,94757.84
2018-11-26T23:50:16.229Z,94762.23
2018-11-26T23:52:44.839Z,94770.22
2018-11-26T23:55:15.273Z,94768.91
2018-11-26T23:57:43.801Z,94767.89
